Time;durP1;ratioP1;P1;durP2;ratioP2;P2;SDS_P1;SDS_P2;PMS_P1;PMS_P2;Temp;Humidity;BMP_temperature;BMP_pressure;BME280_temperature;BME280_humidity;BME280_pressure;Samples;Min_cycle;Max_cycle;Signal;HPM_P1;HPM_P2
2023/02/07 00:01:26;;;;;;;69.07;27.23;;;0.10;99.90;;;-144.05;84.75;57112.22;5025812;28;20040;-82
2023/02/07 00:03:55;;;;;;;68.72;26.80;;;0.10;99.90;;;-144.05;84.83;57146.19;5025359;28;20097;-82
2023/02/07 00:06:30;;;;;;;64.05;26.30;;;0.10;99.90;;;-144.05;84.57;57120.72;5043902;28;20120;-84
2023/02/07 00:08:59;;;;;;;63.85;26.65;;;0.00;99.90;;;-144.05;84.34;57139.81;5042435;28;20057;-82
2023/02/07 00:11:25;;;;;;;64.30;26.17;;;0.00;99.90;;;-144.05;84.21;57135.56;5044564;28;20123;-82
2023/02/07 00:13:56;;;;;;;72.75;26.50;;;0.00;99.90;;;-144.05;84.31;57103.72;5044494;28;20473;-83
2023/02/07 00:16:24;;;;;;;61.92;25.40;;;-0.10;99.90;;;-144.05;84.55;57124.97;5026736;28;20037;-82
2023/02/07 00:18:51;;;;;;;58.30;24.38;;;0.00;99.90;;;-144.05;84.31;57129.22;5025776;28;20026;-80
2023/02/07 00:21:23;;;;;;;64.75;25.63;;;0.00;99.90;;;-144.05;84.26;57112.22;5038265;28;20045;-81
2023/02/07 00:23:50;;;;;;;65.80;25.83;;;-0.10;99.90;;;-144.05;83.94;57131.31;5039065;28;20064;-81
2023/02/07 00:26:20;;;;;;;62.78;24.33;;;-0.10;99.90;;;-144.05;83.62;57122.84;5041912;28;20032;-81
2023/02/07 00:28:48;;;;;;;60.42;22.77;;;-0.10;99.90;;;-144.05;83.72;57103.72;5024547;28;20082;-84
2023/02/07 00:31:23;;;;;;;53.33;21.73;;;0.00;99.90;;;-144.05;83.46;57118.59;5029804;28;20037;-82
2023/02/07 00:33:54;;;;;;;52.03;22.00;;;-0.10;99.90;;;-144.05;83.15;57118.59;5047747;28;20084;-82
2023/02/07 00:36:25;;;;;;;52.28;22.77;;;-0.10;99.90;;;-144.05;82.72;57116.47;5047882;28;20067;-81
2023/02/07 00:38:56;;;;;;;48.28;20.38;;;-0.20;99.90;;;-144.05;82.56;57141.94;5030700;28;20025;-81
2023/02/07 00:41:22;;;;;;;50.58;20.60;;;-0.20;99.90;;;-144.05;82.84;57129.22;5046684;28;20061;-82
2023/02/07 00:43:48;;;;;;;50.00;20.65;;;-0.20;99.90;;;-144.05;82.42;57122.84;5029920;28;20082;-82
2023/02/07 00:46:16;;;;;;;43.97;19.63;;;-0.30;99.90;;;-144.05;82.26;57116.47;5029903;28;20030;-84
2023/02/07 00:48:43;;;;;;;49.78;18.25;;;-0.30;99.90;;;-144.05;82.48;57137.69;5046149;28;20044;-83
2023/02/07 00:51:12;;;;;;;40.10;18.65;;;-0.20;99.90;;;-144.05;81.81;57114.34;5029504;28;20117;-84
2023/02/07 00:53:39;;;;;;;40.88;17.67;;;-0.20;99.90;;;-144.05;81.99;57097.34;5048706;28;20032;-82
2023/02/07 00:56:07;;;;;;;43.83;17.98;;;-0.20;99.90;;;-144.05;81.50;57131.31;5048288;28;20030;-81
2023/02/07 00:58:34;;;;;;;43.30;17.02;;;-0.30;99.90;;;-144.05;81.18;57112.22;5044883;28;20025;-83
2023/02/07 01:01:00;;;;;;;37.60;17.50;;;-0.20;99.90;;;-144.05;80.66;57103.72;5039600;28;20060;-84
2023/02/07 01:03:29;;;;;;;40.28;16.95;;;-0.20;99.90;;;-144.05;80.42;57133.44;5040241;28;20034;-84
2023/02/07 01:05:55;;;;;;;33.20;14.95;;;-0.10;99.90;;;-144.05;79.87;57137.69;5039932;28;20444;-84
2023/02/07 01:08:21;;;;;;;32.33;15.30;;;-0.20;99.90;;;-144.05;79.50;57116.47;5021288;28;20086;-81
2023/02/07 01:10:48;;;;;;;32.40;14.70;;;-0.20;99.90;;;-144.05;79.49;57135.56;5021874;28;20095;-81
2023/02/07 01:13:15;;;;;;;35.53;15.35;;;-0.20;99.90;;;-144.05;79.29;57148.31;5039870;28;20044;-83
2023/02/07 01:15:46;;;;;;;32.83;15.48;;;-0.20;99.90;;;-144.05;79.01;57103.72;5038831;28;20065;-83
2023/02/07 01:18:13;;;;;;;33.65;15.57;;;-0.20;99.90;;;-144.05;78.63;57154.69;5036795;28;20507;-83
2023/02/07 01:20:39;;;;;;;33.83;14.60;;;-0.20;99.90;;;-144.05;78.30;57137.69;5021382;28;20043;-83
2023/02/07 01:23:06;;;;;;;28.75;13.68;;;-0.20;99.90;;;-144.05;77.50;57116.47;5038116;28;20456;-82
2023/02/07 01:25:33;;;;;;;28.25;14.02;;;-0.30;99.90;;;-144.05;77.36;57131.31;5021606;28;20116;-83
2023/02/07 01:27:59;;;;;;;21.88;13.10;;;-0.40;99.90;;;-144.05;77.55;57146.19;5037711;28;20037;-82
2023/02/07 01:30:25;;;;;;;30.27;13.27;;;-0.40;99.90;;;-144.05;77.29;57141.94;5038043;28;20038;-83
2023/02/07 01:32:51;;;;;;;29.55;13.23;;;-0.60;99.90;;;-144.05;77.59;57107.97;5019769;28;20105;-85
2023/02/07 01:35:17;;;;;;;31.60;14.07;;;-0.60;99.90;;;-144.05;77.91;57124.97;5039131;28;20072;-83
2023/02/07 01:37:43;;;;;;;28.75;13.55;;;-0.60;99.90;;;-144.05;77.34;57107.97;5021021;28;20029;-84
2023/02/07 01:40:12;;;;;;;30.67;12.25;;;-0.60;99.90;;;-144.05;77.32;57124.97;5048971;28;20033;-82
2023/02/07 01:42:38;;;;;;;24.88;11.82;;;-0.60;99.90;;;-144.05;77.24;57133.44;5046989;28;20521;-85
2023/02/07 01:45:28;;;;;;;28.55;13.07;;;-0.70;99.90;;;-144.05;77.83;57116.47;5038800;28;20072;-84
2023/02/07 01:48:03;;;;;;;26.52;12.23;;;-0.80;99.90;;;-144.05;77.73;57141.94;5038192;28;20075;-83
2023/02/07 01:50:30;;;;;;;24.88;12.02;;;-0.70;99.90;;;-144.05;77.40;57141.94;5037180;28;20026;-84
2023/02/07 01:53:03;;;;;;;29.60;12.50;;;-0.70;99.90;;;-144.05;77.17;57133.44;5038029;28;20029;-84
2023/02/07 01:55:36;;;;;;;22.30;11.55;;;-0.70;99.90;;;-144.05;76.90;57129.22;5038993;28;20025;-81
2023/02/07 01:58:06;;;;;;;21.70;11.13;;;-0.60;99.90;;;-144.05;76.57;57122.84;5038403;28;20554;-83
2023/02/07 02:00:35;;;;;;;23.48;11.68;;;-0.60;99.90;;;-144.05;76.32;57114.34;5021592;28;20556;-82
2023/02/07 02:03:02;;;;;;;25.00;10.85;;;-0.60;99.90;;;-144.05;75.94;57088.84;5039343;28;20033;-80
2023/02/07 02:05:33;;;;;;;23.05;11.27;;;-0.50;99.90;;;-144.05;75.79;57110.09;5039155;28;20183;-83
2023/02/07 02:07:59;;;;;;;25.67;11.65;;;-0.60;99.90;;;-144.05;75.71;57116.47;5036786;28;20559;-83
2023/02/07 02:11:10;;;;;;;25.13;11.93;;;-0.70;99.90;;;-144.05;75.88;57120.72;5020662;28;20063;-86
2023/02/07 02:14:01;;;;;;;29.63;11.73;;;-0.60;99.90;;;-144.05;75.54;57116.47;5037677;28;20037;-83
2023/02/07 02:16:58;;;;;;;20.90;10.10;;;-0.60;99.90;;;-144.05;75.35;57156.81;5019495;28;20029;-82
2023/02/07 02:19:55;;;;;;;21.40;10.10;;;-0.70;99.90;;;-144.05;75.76;57131.31;5013091;28;20041;-85
2023/02/07 02:22:54;;;;;;;25.10;11.52;;;-0.80;99.90;;;-144.05;75.72;57150.44;5004379;28;20045;-82
2023/02/07 02:25:53;;;;;;;25.42;11.55;;;-1.00;99.90;;;-144.05;75.98;57152.56;5039019;28;20044;-84
2023/02/07 02:29:11;;;;;;;27.52;13.45;;;-1.20;99.90;;;-144.05;77.08;57131.31;5021766;28;20109;-83
2023/02/07 02:32:16;;;;;;;33.13;14.60;;;-1.20;99.90;;;-144.05;77.14;57127.09;5041504;28;20033;-84
2023/02/07 02:34:57;;;;;;;35.70;14.32;;;-1.30;99.90;;;-144.05;77.14;57158.94;5041464;28;20037;-83
2023/02/07 02:38:01;;;;;;;29.13;13.77;;;-1.40;99.90;;;-144.05;77.36;57169.56;5025070;28;20056;-85
2023/02/07 02:40:49;;;;;;;30.23;14.82;;;-1.50;99.90;;;-144.05;77.84;57146.19;5042531;28;20044;-84
2023/02/07 02:43:44;;;;;;;29.35;13.90;;;-1.60;99.90;;;-144.05;77.76;57165.31;5050673;28;20044;-80
2023/02/07 02:46:36;;;;;;;36.67;16.05;;;-1.70;99.90;;;-144.05;78.18;57184.44;5042290;28;20479;-83
2023/02/07 02:49:08;;;;;;;31.00;14.15;;;-1.80;99.90;;;-144.05;78.28;57150.44;5040365;28;20132;-82
2023/02/07 02:51:34;;;;;;;36.80;15.30;;;-1.80;99.90;;;-144.05;78.80;57186.56;5038348;28;20404;-83
2023/02/07 02:54:01;;;;;;;28.65;14.45;;;-1.90;99.90;;;-144.05;78.97;57148.31;5036857;28;20071;-81
2023/02/07 02:56:45;;;;;;;31.95;14.65;;;-1.90;99.90;;;-144.05;78.91;57146.19;5037093;28;20080;-83
2023/02/07 03:00:16;;;;;;;29.80;13.50;;;-1.90;99.90;;;-144.05;78.82;57139.81;5039108;28;20025;-83
2023/02/07 03:03:16;;;;;;;40.45;15.48;;;-2.00;99.90;;;-144.05;78.71;57167.44;5021577;28;20025;-83
2023/02/07 03:06:19;;;;;;;29.42;13.82;;;-2.20;99.90;;;-144.05;78.90;57152.56;5040095;28;20029;-83
2023/02/07 03:09:57;;;;;;;29.73;14.48;;;-2.30;99.90;;;-144.05;79.30;57150.44;5036175;28;20393;-84
2023/02/07 03:12:45;;;;;;;32.25;15.00;;;-2.30;99.90;;;-144.05;79.31;57199.31;5016539;28;20076;-82
2023/02/07 03:15:46;;;;;;;31.33;15.27;;;-2.30;99.90;;;-144.05;79.48;57165.31;5016114;28;20036;-81
2023/02/07 03:18:25;;;;;;;33.78;14.52;;;-2.40;99.90;;;-144.05;79.33;57146.19;5011818;28;20127;-82
2023/02/07 03:21:15;;;;;;;30.70;14.98;;;-2.40;99.90;;;-144.05;79.47;57192.94;5016774;28;20056;-84
2023/02/07 03:23:46;;;;;;;33.47;16.35;;;-2.50;99.90;;;-144.05;79.75;57163.19;5032722;28;20501;-83
2023/02/07 03:26:13;;;;;;;36.30;16.27;;;-2.40;99.90;;;-144.05;80.02;57186.56;5033151;28;20124;-83
2023/02/07 03:28:43;;;;;;;35.53;17.42;;;-2.30;99.90;;;-144.05;79.88;57137.69;5033922;28;20033;-82
2023/02/07 03:31:18;;;;;;;39.45;15.95;;;-2.30;99.90;;;-144.05;79.87;57146.19;5034544;28;20029;-86
2023/02/07 03:33:53;;;;;;;28.85;14.63;;;-2.30;99.90;;;-144.05;79.95;57184.44;5034626;28;20358;-80
2023/02/07 03:36:32;;;;;;;35.80;14.85;;;-2.40;99.90;;;-144.05;79.97;57173.81;5035239;28;20034;-83
2023/02/07 03:38:59;;;;;;;34.15;16.52;;;-2.40;99.90;;;-144.05;80.47;57175.94;5043900;28;20025;-82
2023/02/07 03:41:45;;;;;;;38.00;16.98;;;-2.40;99.90;;;-144.05;80.07;57173.81;5023532;28;20128;-84
2023/02/07 03:44:16;;;;;;;34.08;15.15;;;-2.50;99.90;;;-144.05;80.22;57150.44;5032121;28;20040;-84
2023/02/07 03:46:42;;;;;;;29.67;14.93;;;-2.50;99.90;;;-144.05;80.09;57141.94;5033705;28;20056;-81
2023/02/07 03:49:08;;;;;;;34.72;16.42;;;-2.70;99.90;;;-144.05;80.79;57158.94;5033356;28;20030;-83
2023/02/07 03:51:35;;;;;;;36.30;15.70;;;-2.60;99.90;;;-144.05;80.81;57158.94;5031694;28;20092;-84
2023/02/07 03:54:01;;;;;;;36.40;16.35;;;-2.60;99.90;;;-144.05;81.05;57169.56;5015991;28;20029;-84
2023/02/07 03:56:26;;;;;;;40.33;16.90;;;-2.50;99.90;;;-144.05;80.40;57173.81;5033585;28;20132;-83
2023/02/07 03:58:52;;;;;;;35.10;16.95;;;-2.60;99.90;;;-144.05;80.57;57180.19;5034426;28;20145;-82
2023/02/07 04:01:18;;;;;;;37.25;16.60;;;-2.70;99.90;;;-144.05;80.47;57146.19;5035854;28;20033;-84
2023/02/07 04:03:44;;;;;;;32.60;15.00;;;-2.60;99.90;;;-144.05;80.35;57129.22;5035657;28;20029;-80
2023/02/07 04:06:10;;;;;;;33.53;16.30;;;-2.60;99.90;;;-144.05;80.88;57161.06;5037146;28;20080;-81
2023/02/07 04:08:36;;;;;;;36.25;17.02;;;-2.60;99.90;;;-144.05;80.97;57152.56;5018731;28;20040;-81
2023/02/07 04:11:03;;;;;;;30.15;13.90;;;-2.60;99.90;;;-144.05;80.22;57184.44;5036682;28;20033;-83
2023/02/07 04:13:30;;;;;;;42.45;16.52;;;-2.60;99.90;;;-144.05;80.02;57144.06;5035741;28;20033;-82
2023/02/07 04:15:56;;;;;;;35.95;16.08;;;-2.80;99.90;;;-144.05;80.80;57182.31;5036452;28;20040;-82
2023/02/07 04:18:22;;;;;;;35.63;15.35;;;-2.70;99.90;;;-144.05;80.78;57154.69;5018356;28;20152;-82
2023/02/07 04:20:47;;;;;;;32.85;14.63;;;-2.80;99.90;;;-144.05;80.39;57184.44;5036705;28;20025;-83
2023/02/07 04:23:13;;;;;;;36.33;15.77;;;-2.90;99.90;;;-144.05;80.62;57173.81;5036523;28;20025;-82
2023/02/07 04:25:39;;;;;;;30.60;16.02;;;-2.90;99.90;;;-144.05;80.80;57173.81;5017934;28;20029;-82
2023/02/07 04:28:06;;;;;;;33.58;16.40;;;-2.90;99.90;;;-144.05;80.80;57154.69;5019186;28;20056;-83
2023/02/07 04:30:32;;;;;;;34.28;17.30;;;-3.00;99.90;;;-144.05;81.17;57152.56;5019812;28;20060;-81
2023/02/07 04:32:58;;;;;;;36.00;16.45;;;-2.90;99.90;;;-144.05;80.92;57175.94;5037306;28;20040;-82
2023/02/07 04:35:24;;;;;;;39.42;17.27;;;-2.90;99.90;;;-144.05;81.15;57178.06;5037122;28;20061;-83
2023/02/07 04:37:50;;;;;;;36.58;16.30;;;-2.90;99.90;;;-144.05;81.14;57173.81;5037597;28;20068;-83
2023/02/07 04:40:16;;;;;;;35.50;15.90;;;-3.00;99.90;;;-144.05;80.76;57188.69;5036954;28;20025;-82
2023/02/07 04:42:42;;;;;;;38.70;17.00;;;-3.00;99.90;;;-144.05;80.81;57173.81;5023753;28;20044;-83
2023/02/07 04:45:08;;;;;;;29.67;15.30;;;-3.00;99.90;;;-144.05;81.14;57182.31;5039389;28;20026;-85
2023/02/07 04:47:34;;;;;;;43.38;16.48;;;-3.00;99.90;;;-144.05;80.91;57178.06;5023593;28;20029;-83
2023/02/07 04:50:00;;;;;;;37.33;16.08;;;-3.00;99.90;;;-144.05;81.03;57148.31;5041066;28;20026;-83
2023/02/07 04:52:26;;;;;;;37.25;15.77;;;-3.00;99.90;;;-144.05;81.04;57175.94;5039734;28;20040;-81
2023/02/07 04:54:51;;;;;;;37.67;16.02;;;-3.00;99.90;;;-144.05;81.00;57169.56;5021771;28;20033;-81
2023/02/07 04:57:17;;;;;;;37.17;15.45;;;-3.00;99.90;;;-144.05;81.15;57165.31;5021428;28;20405;-84
2023/02/07 04:59:43;;;;;;;36.80;16.80;;;-3.00;99.90;;;-144.05;81.22;57154.69;5037021;28;20036;-84
2023/02/07 05:02:09;;;;;;;32.72;15.85;;;-3.00;99.90;;;-144.05;81.26;57158.94;5037341;28;20021;-83
2023/02/07 05:04:35;;;;;;;34.33;16.00;;;-2.90;99.90;;;-144.05;80.94;57163.19;5038525;28;20032;-83
2023/02/07 05:07:01;;;;;;;37.05;16.95;;;-2.90;99.90;;;-144.05;81.04;57173.81;5036725;28;20370;-82
2023/02/07 05:09:26;;;;;;;35.92;16.55;;;-2.90;99.90;;;-144.05;80.69;57148.31;5036740;28;20354;-83
2023/02/07 05:11:52;;;;;;;40.95;15.95;;;-2.90;99.90;;;-144.05;80.89;57165.31;5023023;28;20133;-84
2023/02/07 05:14:18;;;;;;;44.92;17.95;;;-2.90;99.90;;;-144.05;80.99;57167.44;5041251;28;20033;-82
2023/02/07 05:16:44;;;;;;;40.30;16.90;;;-2.90;99.90;;;-144.05;80.81;57152.56;5041811;28;20051;-82
2023/02/07 05:19:10;;;;;;;30.98;15.82;;;-2.80;99.90;;;-144.05;80.82;57163.19;5040058;28;20037;-85
2023/02/07 05:21:36;;;;;;;36.42;15.85;;;-2.70;99.90;;;-144.05;80.63;57152.56;5023130;28;20143;-82
2023/02/07 05:24:03;;;;;;;32.92;14.95;;;-2.80;99.90;;;-144.05;80.45;57148.31;5040188;28;20071;-82
2023/02/07 05:26:29;;;;;;;31.92;15.85;;;-2.80;99.90;;;-144.05;80.57;57173.81;5025535;28;20093;-83
2023/02/07 05:28:54;;;;;;;34.20;16.23;;;-2.80;99.90;;;-144.05;81.11;57161.06;5040829;28;20035;-80
2023/02/07 05:33:02;;;;;;;38.95;16.02;;;-2.80;99.90;;;-144.05;81.32;57165.31;5042369;28;20053;-83
2023/02/07 05:34:06;;;;;;;36.65;16.58;;;-2.90;99.90;;;-144.05;81.93;57182.31;5042968;28;20052;-83
2023/02/07 05:36:32;;;;;;;30.35;15.20;;;-2.90;99.90;;;-144.05;82.44;57180.19;5048013;28;20041;-84
2023/02/07 05:38:58;;;;;;;28.90;14.68;;;-2.80;99.90;;;-144.05;81.98;57144.06;5047021;28;20029;-82
2023/02/07 05:41:24;;;;;;;33.00;15.57;;;-2.70;99.90;;;-144.05;81.35;57178.06;5054951;28;20033;-81
2023/02/07 05:43:50;;;;;;;31.42;15.35;;;-2.60;99.90;;;-144.05;81.14;57146.19;5041291;28;20029;-84
2023/02/07 05:46:16;;;;;;;28.88;14.80;;;-2.70;99.90;;;-144.05;81.20;57129.22;5036436;28;20045;-83
2023/02/07 05:48:41;;;;;;;29.88;13.88;;;-2.70;99.90;;;-144.05;81.27;57146.19;5038204;28;20049;-83
2023/02/07 05:51:07;;;;;;;36.38;15.10;;;-2.70;99.90;;;-144.05;81.04;57182.31;5037459;28;20124;-84
2023/02/07 05:53:33;;;;;;;33.20;15.02;;;-2.70;99.90;;;-144.05;80.47;57167.44;5037445;28;20048;-80
2023/02/07 05:55:59;;;;;;;35.00;14.95;;;-2.70;99.90;;;-144.05;80.12;57175.94;5024687;28;20026;-83
2023/02/07 05:58:25;;;;;;;34.38;14.02;;;-2.70;99.90;;;-144.05;79.88;57156.81;5024211;28;20034;-83
2023/02/07 06:00:51;;;;;;;30.05;14.95;;;-2.80;99.90;;;-144.05;79.87;57186.56;5038160;28;20097;-83
2023/02/07 06:03:17;;;;;;;29.90;14.48;;;-2.80;99.90;;;-144.05;79.76;57152.56;5020622;28;20072;-82
2023/02/07 06:05:43;;;;;;;31.52;14.70;;;-2.90;99.90;;;-144.05;79.42;57158.94;5021289;28;20048;-83
2023/02/07 06:08:09;;;;;;;25.45;13.63;;;-3.10;99.90;;;-144.05;79.89;57167.44;5038289;28;20044;-85
2023/02/07 06:10:35;;;;;;;27.45;13.52;;;-3.20;99.90;;;-144.05;80.28;57175.94;5019452;28;20033;-83
2023/02/07 06:13:01;;;;;;;30.92;14.32;;;-3.20;99.90;;;-144.05;80.64;57165.31;5036505;28;20037;-83
2023/02/07 06:15:27;;;;;;;32.33;13.93;;;-3.20;99.90;;;-144.05;80.85;57195.06;5035915;28;20032;-84
2023/02/07 06:17:52;;;;;;;29.58;14.70;;;-3.20;99.90;;;-144.05;80.90;57150.44;5037855;28;20033;-83
2023/02/07 06:20:18;;;;;;;28.45;13.80;;;-3.30;99.90;;;-144.05;81.02;57190.81;5019320;28;20124;-83
2023/02/07 06:22:45;;;;;;;32.83;15.38;;;-3.20;99.90;;;-144.05;81.44;57175.94;5018863;28;20029;-84
2023/02/07 06:25:11;;;;;;;40.17;18.08;;;-3.20;99.90;;;-144.05;81.86;57171.69;5035504;28;20112;-82
2023/02/07 06:27:41;;;;;;;38.38;17.23;;;-3.00;99.90;;;-144.05;81.03;57180.19;5036580;28;20022;-81
2023/02/07 06:30:10;;;;;;;32.45;17.35;;;-3.00;99.90;;;-144.05;80.93;57186.56;5036371;28;20033;-85
2023/02/07 06:32:36;;;;;;;42.50;17.73;;;-3.00;99.90;;;-144.05;80.66;57175.94;5038070;28;20029;-83
2023/02/07 06:35:05;;;;;;;35.35;16.45;;;-3.00;99.90;;;-144.05;80.63;57137.69;5036729;28;20037;-81
2023/02/07 06:37:31;;;;;;;39.58;17.08;;;-3.00;99.90;;;-144.05;80.71;57178.06;5019831;28;20113;-84
2023/02/07 06:39:56;;;;;;;42.50;17.95;;;-3.10;99.90;;;-144.05;80.64;57192.94;5036619;28;20047;-86
2023/02/07 06:42:23;;;;;;;35.30;17.50;;;-3.00;99.90;;;-144.05;80.62;57152.56;5038027;28;20482;-82
2023/02/07 06:44:49;;;;;;;38.63;19.02;;;-3.10;99.90;;;-144.05;80.66;57192.94;5020987;28;20071;-82
2023/02/07 06:47:15;;;;;;;38.72;18.48;;;-3.10;99.90;;;-144.05;80.84;57197.19;5020680;28;20037;-83
2023/02/07 06:49:41;;;;;;;37.20;18.20;;;-3.10;99.90;;;-144.05;81.30;57171.69;5037431;28;20033;-85
2023/02/07 06:52:07;;;;;;;37.08;18.48;;;-3.20;99.90;;;-144.05;81.03;57146.19;5020303;28;20033;-81
2023/02/07 06:54:33;;;;;;;42.22;19.27;;;-3.20;99.90;;;-144.05;81.12;57154.69;5036402;28;20099;-80
2023/02/07 06:56:59;;;;;;;50.42;20.42;;;-3.20;99.90;;;-144.05;80.82;57182.31;5038043;28;20393;-82
2023/02/07 06:59:25;;;;;;;43.80;20.15;;;-3.10;99.90;;;-144.05;80.96;57188.69;5035398;28;20029;-82
2023/02/07 07:01:51;;;;;;;55.72;27.92;;;-3.10;99.90;;;-144.05;81.00;57186.56;5034364;28;20060;-85
2023/02/07 07:04:17;;;;;;;55.83;26.33;;;-3.20;99.90;;;-144.05;80.96;57161.06;5035989;28;20025;-83
2023/02/07 07:06:43;;;;;;;49.50;22.52;;;-3.20;99.90;;;-144.05;80.94;57201.44;5035997;28;20393;-82
2023/02/07 07:09:09;;;;;;;41.40;19.13;;;-3.20;99.90;;;-144.05;80.96;57192.94;5033560;28;20120;-83
2023/02/07 07:11:41;;;;;;;46.53;20.15;;;-3.20;99.90;;;-144.05;80.94;57199.31;5034198;28;20037;-83
2023/02/07 07:14:10;;;;;;;37.08;18.63;;;-3.20;99.90;;;-144.05;80.76;57154.69;5035726;28;20500;-83
2023/02/07 07:16:36;;;;;;;35.42;17.48;;;-3.30;99.90;;;-144.05;80.63;57197.19;5016733;28;20037;-85
2023/02/07 07:19:02;;;;;;;38.03;18.17;;;-3.30;99.90;;;-144.05;81.05;57152.56;5017117;28;20128;-84
2023/02/07 07:21:28;;;;;;;36.95;18.70;;;-3.30;99.90;;;-144.05;80.95;57154.69;5018199;28;20025;-86
2023/02/07 07:23:54;;;;;;;33.83;18.17;;;-3.20;99.90;;;-144.05;80.86;57197.19;5035864;28;20029;-84
2023/02/07 07:26:21;;;;;;;34.03;17.20;;;-3.30;99.90;;;-144.05;80.47;57175.94;5035737;28;20080;-84
2023/02/07 07:28:48;;;;;;;31.63;15.15;;;-3.30;99.90;;;-144.05;80.67;57158.94;5034130;28;20072;-86
2023/02/07 07:31:14;;;;;;;34.08;16.70;;;-3.40;99.90;;;-144.05;80.92;57169.56;5035601;28;20040;-83
2023/02/07 07:33:40;;;;;;;35.20;17.75;;;-3.40;99.90;;;-144.05;81.11;57161.06;5045491;28;20040;-82
2023/02/07 07:36:07;;;;;;;37.42;18.58;;;-3.20;99.90;;;-144.05;81.33;57190.81;5030545;28;20430;-81
2023/02/07 07:38:33;;;;;;;43.85;20.17;;;-3.10;99.90;;;-144.05;81.34;57167.44;5018367;28;20164;-84
2023/02/07 07:41:00;;;;;;;42.95;19.92;;;-2.80;99.90;;;-144.05;80.87;57158.94;5038480;28;20075;-84
2023/02/07 07:43:26;;;;;;;40.47;19.15;;;-2.50;99.90;;;-144.05;80.64;57154.69;5021893;28;20548;-84
2023/02/07 07:46:01;;;;;;;38.00;19.50;;;-2.30;99.90;;;-144.05;80.34;57165.31;5022924;28;20154;-81
2023/02/07 07:48:29;;;;;;;35.95;19.90;;;-2.10;99.90;;;-144.05;80.33;57124.97;5022474;28;20075;-84
2023/02/07 07:50:55;;;;;;;35.22;17.27;;;-1.90;99.90;;;-144.05;80.28;57137.69;5040278;28;20037;-83
2023/02/07 07:53:23;;;;;;;33.22;16.10;;;-1.60;99.90;;;-144.05;79.83;57133.44;5040163;28;20053;-82
2023/02/07 07:55:56;;;;;;;28.80;15.48;;;-1.40;99.90;;;-144.05;79.93;57116.47;5023626;28;20044;-82
2023/02/07 07:58:25;;;;;;;30.08;16.08;;;-1.20;99.90;;;-144.05;79.68;57127.09;5039116;28;20052;-82
2023/02/07 08:00:52;;;;;;;34.88;16.88;;;-0.90;99.90;;;-144.05;78.97;57105.84;5022888;28;20191;-82
2023/02/07 08:03:19;;;;;;;35.17;15.80;;;-0.60;99.90;;;-144.05;78.25;57099.47;5040362;28;20071;-85
2023/02/07 08:05:46;;;;;;;25.60;13.77;;;-0.30;99.90;;;-144.05;77.89;57099.47;5040783;28;20048;-83
2023/02/07 08:08:14;;;;;;;26.55;15.15;;;-0.10;99.90;;;-144.05;77.68;57095.22;5039845;28;20034;-83
2023/02/07 08:10:41;;;;;;;28.08;13.90;;;0.10;99.90;;;-144.05;77.79;57059.09;5039833;28;20038;-82
2023/02/07 08:13:07;;;;;;;24.55;12.18;;;0.20;99.90;;;-144.05;76.15;57090.97;5040424;28;20068;-84
2023/02/07 08:15:33;;;;;;;23.13;13.85;;;0.30;99.90;;;-144.05;76.34;57088.84;5039107;28;20041;-84
2023/02/07 08:18:00;;;;;;;29.27;13.68;;;0.40;99.90;;;-144.05;76.15;57071.84;5038948;28;20097;-82
2023/02/07 08:20:26;;;;;;;25.48;13.07;;;0.50;99.90;;;-144.05;75.25;57103.72;5038936;28;20040;-84
2023/02/07 08:22:58;;;;;;;21.65;12.48;;;0.60;99.90;;;-144.05;74.12;57090.97;5039544;28;20421;-81
2023/02/07 08:25:25;;;;;;;23.05;11.93;;;0.80;99.90;;;-144.05;72.76;57097.34;5039295;28;20033;-84
2023/02/07 08:27:52;;;;;;;23.65;11.48;;;0.90;99.90;;;-144.05;72.20;57105.84;5039885;28;20029;-83
2023/02/07 08:30:18;;;;;;;21.42;11.27;;;0.90;99.90;;;-144.05;70.45;57105.84;5021789;28;20124;-84
2023/02/07 08:32:45;;;;;;;22.52;10.52;;;0.90;99.90;;;-144.05;70.19;57112.22;5038227;28;20044;-83
2023/02/07 08:35:11;;;;;;;25.77;11.52;;;0.90;99.90;;;-144.05;70.32;57088.84;5038165;28;20462;-85
2023/02/07 08:37:37;;;;;;;22.98;12.07;;;1.20;99.90;;;-144.05;69.02;57107.97;5047854;28;20033;-82
2023/02/07 08:40:05;;;;;;;22.92;10.25;;;1.30;99.90;;;-144.05;68.49;57069.72;5032244;28;20040;-83
2023/02/07 08:42:32;;;;;;;19.52;11.05;;;1.40;99.90;;;-144.05;68.71;57067.59;5038100;28;20030;-82
2023/02/07 08:44:57;;;;;;;17.30;10.68;;;1.60;99.90;;;-144.05;67.93;57063.34;5019758;28;20053;-84
2023/02/07 08:47:24;;;;;;;23.33;11.02;;;1.70;99.90;;;-144.05;67.53;57078.22;5036907;28;20080;-80
2023/02/07 08:49:49;;;;;;;19.13;11.68;;;1.80;99.90;;;-144.05;67.61;57067.59;5019540;28;20029;-85
2023/02/07 08:52:15;;;;;;;19.17;10.73;;;2.00;99.90;;;-144.05;66.89;57114.34;5035973;28;20038;-81
2023/02/07 08:54:41;;;;;;;22.52;11.75;;;2.10;99.90;;;-144.05;66.10;57061.22;5019813;28;20033;-81
2023/02/07 08:57:07;;;;;;;18.42;11.57;;;2.30;99.90;;;-144.05;66.06;57054.88;5020076;28;20117;-83
2023/02/07 08:59:33;;;;;;;18.92;11.00;;;2.40;99.90;;;-144.05;65.81;57073.97;5038035;28;20025;-82
2023/02/07 09:01:59;;;;;;;17.13;10.85;;;2.40;99.90;;;-144.05;65.17;57059.09;5038221;28;20413;-80
2023/02/07 09:04:25;;;;;;;20.15;11.32;;;2.50;99.90;;;-144.05;65.16;57067.59;5037123;28;20036;-80
2023/02/07 09:06:51;;;;;;;21.73;11.02;;;2.70;99.90;;;-144.05;63.81;57080.34;5038738;28;20026;-83
2023/02/07 09:09:17;;;;;;;20.77;12.15;;;2.80;99.90;;;-144.05;63.07;57048.50;5038840;28;20041;-82
2023/02/07 09:11:43;;;;;;;18.85;10.45;;;2.80;99.90;;;-144.05;62.47;57084.59;5021456;28;20036;-81
2023/02/07 09:14:09;;;;;;;16.92;10.93;;;2.70;99.90;;;-144.05;63.37;57050.63;5039729;28;20108;-82
2023/02/07 09:16:35;;;;;;;19.08;11.40;;;2.80;99.90;;;-144.05;62.62;57065.47;5041446;28;20106;-81
2023/02/07 09:19:01;;;;;;;18.02;11.07;;;2.90;99.90;;;-144.05;62.71;57056.97;5038543;28;20028;-82
2023/02/07 09:21:27;;;;;;;16.60;10.45;;;3.10;99.90;;;-144.05;62.44;57063.34;5026263;28;20021;-79
2023/02/07 09:23:53;;;;;;;17.38;10.43;;;3.30;99.90;;;-144.05;61.86;57065.47;5024125;28;20116;-81
2023/02/07 09:26:25;;;;;;;20.15;10.60;;;3.40;99.90;;;-144.05;61.45;57059.09;5040559;28;20030;-84
2023/02/07 09:28:51;;;;;;;24.08;13.35;;;3.70;99.90;;;-144.05;61.10;57054.88;5042614;28;20033;-84
2023/02/07 09:31:18;;;;;;;17.42;11.15;;;3.80;99.90;;;-144.05;61.46;57063.34;5023741;28;20057;-79
2023/02/07 09:33:44;;;;;;;19.95;11.02;;;4.00;99.90;;;-144.05;60.46;57052.75;5056406;28;20608;-79
2023/02/07 09:36:25;;;;;;;19.90;9.32;;;4.10;99.90;;;-144.05;59.16;57076.09;5039765;28;20049;-81
2023/02/07 09:38:52;;;;;;;9.68;6.22;;;4.20;99.90;;;-144.05;57.63;57050.63;5037869;28;20033;-83
2023/02/07 09:41:40;;;;;;;13.77;7.50;;;4.30;99.90;;;-144.05;56.64;57050.63;5039731;28;20025;-81
2023/02/07 09:45:01;;;;;;;10.65;7.05;;;4.50;99.90;;;-144.05;55.99;57029.38;5023722;28;20415;-83
2023/02/07 09:47:31;;;;;;;8.00;5.22;;;4.70;99.90;;;-144.05;54.46;57035.75;5006249;28;20037;-81
2023/02/07 09:50:19;;;;;;;7.55;5.25;;;4.80;99.90;;;-144.05;52.15;57010.25;5039227;28;20109;-84
2023/02/07 09:53:11;;;;;;;7.40;4.88;;;4.80;99.90;;;-144.05;52.46;57056.97;5038257;28;20025;-83
2023/02/07 09:55:59;;;;;;;9.30;4.85;;;4.70;99.90;;;-144.05;51.92;57044.25;5037998;28;20473;-83
2023/02/07 09:58:56;;;;;;;6.43;4.40;;;4.80;99.90;;;-144.05;51.98;57025.13;5038150;28;20033;-84
2023/02/07 10:01:39;;;;;;;5.88;4.40;;;4.70;99.90;;;-144.05;53.01;57014.50;5038200;28;20030;-83
2023/02/07 10:04:25;;;;;;;7.55;4.65;;;5.00;99.90;;;-144.05;50.70;57044.25;5037818;28;20033;-82
2023/02/07 10:06:59;;;;;;;5.47;3.60;;;5.30;99.90;;;-144.05;49.30;57033.63;5021577;28;20041;-84
2023/02/07 10:09:37;;;;;;;5.03;3.78;;;5.20;99.90;;;-144.05;48.87;57048.50;5021112;28;20158;-81
2023/02/07 10:12:17;;;;;;;5.25;3.67;;;5.10;99.90;;;-144.05;48.28;57063.34;5039127;28;20022;-83